createdAt,value
2023-02-18T00:00:07.181Z,46.27
2023-02-18T00:01:38.539Z,42.07
2023-02-18T00:03:14.979Z,44.94
2023-02-18T00:04:46.302Z,41.88
2023-02-18T00:06:17.703Z,41.54
2023-02-18T00:07:49.322Z,40.11
2023-02-18T00:09:20.725Z,34.94
2023-02-18T00:10:52.186Z,21.70
2023-02-18T00:12:23.575Z,32.05
2023-02-18T00:13:54.939Z,37.49
2023-02-18T00:15:27.104Z,39.04
2023-02-18T00:16:58.545Z,32.81
2023-02-18T00:18:30.003Z,36.23
2023-02-18T00:20:01.418Z,37.25
2023-02-18T00:21:32.782Z,39.14
2023-02-18T00:23:04.210Z,38.28
2023-02-18T00:24:35.720Z,37.78
2023-02-18T00:26:07.386Z,42.28
2023-02-18T00:27:38.875Z,37.73
2023-02-18T00:29:10.373Z,40.56
2023-02-18T00:30:41.695Z,34.79
2023-02-18T00:32:13.240Z,37.62
2023-02-18T00:34:10.678Z,37.07
2023-02-18T00:35:42.239Z,29.08
2023-02-18T00:37:13.499Z,31.73
2023-02-18T00:38:44.991Z,32.21
2023-02-18T00:40:16.559Z,32.91
2023-02-18T00:41:48.071Z,33.70
2023-02-18T00:43:19.565Z,27.32
2023-02-18T00:44:51.210Z,40.64
2023-02-18T00:46:22.550Z,40.00
2023-02-18T00:47:54.020Z,29.31
2023-02-18T00:49:25.513Z,26.93
2023-02-18T00:50:56.831Z,32.97
2023-02-18T00:52:28.376Z,34.91
2023-02-18T00:53:59.767Z,31.08
2023-02-18T00:55:31.115Z,39.91
2023-02-18T00:57:02.569Z,35.80
2023-02-18T00:58:34.116Z,31.84
2023-02-18T01:00:05.538Z,36.58
2023-02-18T01:01:36.916Z,31.34
2023-02-18T01:03:08.195Z,35.30
2023-02-18T01:04:39.686Z,40.63
2023-02-18T01:06:11.210Z,32.30
2023-02-18T01:07:42.868Z,37.73
2023-02-18T01:09:14.298Z,34.60
2023-02-18T01:10:45.683Z,34.14
2023-02-18T01:12:18.039Z,36.44
2023-02-18T01:13:49.338Z,40.69
2023-02-18T01:15:20.663Z,34.40
2023-02-18T01:16:53.084Z,34.00
2023-02-18T01:18:24.402Z,36.04
2023-02-18T01:19:55.769Z,37.98
2023-02-18T01:21:32.160Z,37.10
2023-02-18T01:23:03.571Z,31.80
2023-02-18T01:24:35.051Z,35.07
2023-02-18T01:26:06.629Z,28.11
2023-02-18T01:27:38.355Z,22.77
2023-02-18T01:29:09.633Z,31.27
2023-02-18T01:30:40.960Z,33.11
2023-02-18T01:32:12.635Z,30.75
2023-02-18T01:33:44.130Z,28.48
2023-02-18T01:35:15.594Z,24.85
2023-02-18T01:36:46.938Z,27.62
2023-02-18T01:38:18.416Z,27.23
2023-02-18T01:39:49.772Z,24.83
2023-02-18T01:41:21.068Z,30.93
2023-02-18T01:42:52.806Z,26.48
2023-02-18T01:44:24.177Z,32.04
2023-02-18T01:45:55.467Z,33.43
2023-02-18T01:47:26.769Z,30.46
2023-02-18T01:48:58.091Z,22.96
2023-02-18T01:50:49.554Z,24.92
2023-02-18T01:52:28.130Z,31.20
2023-02-18T01:53:59.450Z,31.61
2023-02-18T01:55:47.097Z,32.39
2023-02-18T01:57:18.620Z,29.79
2023-02-18T01:58:50.031Z,25.41
2023-02-18T02:00:51.476Z,26.84
2023-02-18T02:02:22.814Z,24.98
2023-02-18T02:03:54.212Z,33.30
2023-02-18T02:05:25.500Z,30.67
2023-02-18T02:06:56.855Z,30.51
2023-02-18T02:08:28.135Z,33.51
2023-02-18T02:09:59.804Z,19.66
2023-02-18T02:11:31.211Z,26.74
2023-02-18T02:13:07.720Z,22.40
2023-02-18T02:14:39.391Z,19.18
2023-02-18T02:16:11.045Z,28.69
2023-02-18T02:18:03.051Z,27.10
2023-02-18T02:19:49.681Z,21.99
2023-02-18T02:21:21.048Z,25.71
2023-02-18T02:22:52.365Z,26.89
2023-02-18T02:24:23.681Z,26.66
2023-02-18T02:25:55.068Z,26.82
2023-02-18T02:27:31.409Z,22.93
2023-02-18T02:29:02.777Z,26.95
2023-02-18T02:30:34.161Z,24.58
2023-02-18T02:32:05.552Z,19.41
2023-02-18T02:33:36.909Z,25.11
2023-02-18T02:35:08.529Z,18.60
2023-02-18T02:36:39.885Z,26.52
2023-02-18T02:38:11.182Z,23.63
2023-02-18T02:39:42.525Z,25.84
2023-02-18T02:41:13.820Z,23.55
2023-02-18T02:42:45.296Z,24.73
2023-02-18T02:44:16.957Z,25.24
2023-02-18T02:45:48.480Z,15.61
2023-02-18T02:47:19.942Z,13.90
2023-02-18T02:48:51.700Z,23.09
2023-02-18T02:50:23.019Z,21.60
2023-02-18T02:51:54.319Z,22.08
2023-02-18T02:53:25.626Z,21.25
2023-02-18T02:54:57.037Z,18.37
2023-02-18T02:56:28.524Z,20.81
2023-02-18T02:57:59.831Z,17.77
2023-02-18T02:59:31.144Z,15.06
2023-02-18T03:01:02.526Z,14.17
2023-02-18T03:02:34.065Z,14.71
2023-02-18T03:04:05.402Z,18.30
2023-02-18T03:05:36.751Z,17.78
2023-02-18T03:07:08.073Z,16.87
2023-02-18T03:08:39.585Z,15.24
2023-02-18T03:10:11.003Z,12.29
2023-02-18T03:11:42.651Z,14.10
2023-02-18T03:13:14.154Z,14.46
2023-02-18T03:14:45.604Z,12.74
2023-02-18T03:16:16.938Z,14.82
2023-02-18T03:17:48.360Z,13.01
2023-02-18T03:19:19.671Z,14.10
2023-02-18T03:20:51.241Z,14.94
2023-02-18T03:22:22.544Z,12.06
2023-02-18T03:23:53.964Z,11.56
2023-02-18T03:25:25.292Z,13.64
2023-02-18T03:26:56.629Z,13.56
2023-02-18T03:28:28.147Z,15.37
2023-02-18T03:29:59.929Z,12.33
2023-02-18T03:31:31.471Z,12.02
2023-02-18T03:33:03.116Z,14.35
2023-02-18T03:34:34.793Z,11.89
2023-02-18T03:36:06.186Z,12.19
2023-02-18T03:37:37.859Z,13.73
2023-02-18T03:39:10.390Z,13.08
2023-02-18T03:40:42.003Z,13.47
2023-02-18T03:42:13.330Z,16.07
2023-02-18T03:43:44.698Z,15.86
2023-02-18T03:45:16.163Z,13.72
2023-02-18T03:46:47.949Z,13.96
2023-02-18T03:48:19.332Z,15.72
2023-02-18T03:49:50.972Z,14.22
2023-02-18T03:51:22.634Z,11.33
2023-02-18T03:52:54.031Z,17.27
2023-02-18T03:54:25.475Z,17.13
2023-02-18T03:55:57.019Z,15.90
2023-02-18T03:57:28.535Z,15.50
2023-02-18T03:58:59.810Z,16.49
2023-02-18T04:00:31.517Z,12.04
2023-02-18T04:02:03.072Z,16.01
2023-02-18T04:03:34.601Z,14.21
2023-02-18T04:05:06.080Z,16.68
2023-02-18T04:06:37.749Z,17.09
2023-02-18T04:08:09.080Z,15.22
2023-02-18T04:09:40.388Z,16.05
2023-02-18T04:11:11.960Z,16.09
2023-02-18T04:12:43.337Z,14.90
2023-02-18T04:14:14.611Z,16.13
2023-02-18T04:15:45.923Z,17.81
2023-02-18T04:17:17.534Z,16.31
2023-02-18T04:18:48.960Z,18.03
2023-02-18T04:20:25.794Z,17.31
2023-02-18T04:21:57.308Z,15.97
2023-02-18T04:23:28.713Z,18.70
2023-02-18T04:25:00.324Z,19.72
2023-02-18T04:26:32.477Z,20.06
2023-02-18T04:28:04.017Z,18.29
2023-02-18T04:29:35.514Z,16.38
2023-02-18T04:31:07.105Z,20.11
2023-02-18T04:32:38.697Z,19.14
2023-02-18T04:34:10.205Z,20.74
2023-02-18T04:35:42.109Z,18.81
2023-02-18T04:37:13.519Z,19.06
2023-02-18T04:38:44.928Z,19.68
2023-02-18T04:40:16.287Z,19.94
2023-02-18T04:41:47.836Z,17.82
2023-02-18T04:43:19.445Z,16.22
2023-02-18T04:44:50.908Z,20.68
2023-02-18T04:46:22.357Z,17.85
2023-02-18T04:47:53.748Z,17.90
2023-02-18T04:49:26.292Z,17.98
2023-02-18T04:50:57.623Z,15.43
2023-02-18T04:52:28.956Z,16.45
2023-02-18T04:54:00.394Z,14.73
2023-02-18T04:55:31.791Z,11.73
2023-02-18T04:57:03.335Z,11.87
2023-02-18T04:58:34.685Z,13.86
2023-02-18T05:00:05.962Z,10.69
2023-02-18T05:01:38.696Z,11.39
2023-02-18T05:03:10.164Z,12.02
2023-02-18T05:04:41.574Z,10.65
2023-02-18T05:06:12.990Z,10.67
2023-02-18T05:07:44.377Z,9.38
2023-02-18T05:09:15.765Z,9.75
2023-02-18T05:10:47.212Z,6.53
2023-02-18T05:12:18.492Z,7.80
2023-02-18T05:13:49.877Z,5.82
2023-02-18T05:15:21.152Z,6.01
2023-02-18T05:16:52.699Z,5.66
2023-02-18T05:18:24.028Z,5.69
2023-02-18T05:19:55.308Z,5.09
2023-02-18T05:21:26.656Z,3.24
2023-02-18T05:22:57.970Z,4.92
2023-02-18T05:24:29.623Z,4.10
2023-02-18T05:26:01.113Z,4.77
2023-02-18T05:27:32.691Z,4.65
2023-02-18T05:29:04.114Z,4.14
2023-02-18T05:30:35.474Z,4.72
2023-02-18T05:32:06.907Z,3.04
2023-02-18T05:33:38.444Z,3.29
2023-02-18T05:35:10.052Z,3.80
2023-02-18T05:36:41.488Z,3.51
2023-02-18T05:38:13.684Z,2.64
2023-02-18T05:39:45.200Z,2.54
2023-02-18T05:41:16.521Z,2.49
2023-02-18T05:42:48.227Z,2.88
2023-02-18T05:44:19.639Z,2.40
2023-02-18T05:45:50.960Z,2.00
2023-02-18T05:47:22.355Z,2.54
2023-02-18T05:48:53.627Z,2.04
2023-02-18T05:50:25.127Z,2.42
2023-02-18T05:51:56.557Z,1.62
2023-02-18T05:53:28.156Z,2.35
2023-02-18T05:54:59.709Z,2.63
2023-02-18T05:56:42.352Z,2.44
2023-02-18T05:58:13.609Z,1.83
2023-02-18T05:59:45.094Z,2.18
2023-02-18T06:01:16.594Z,2.06
2023-02-18T06:02:58.223Z,2.09
2023-02-18T06:04:30.073Z,2.76
2023-02-18T06:06:01.749Z,2.51
2023-02-18T06:07:33.222Z,1.78
2023-02-18T06:09:04.506Z,1.66
2023-02-18T06:10:35.910Z,1.62
2023-02-18T06:12:07.800Z,2.05
2023-02-18T06:13:39.293Z,2.12
2023-02-18T06:15:10.753Z,1.94
2023-02-18T06:16:42.183Z,2.03
2023-02-18T06:18:18.502Z,1.10
2023-02-18T06:19:50.052Z,1.50
2023-02-18T06:21:21.507Z,1.68
2023-02-18T06:22:52.813Z,1.33
2023-02-18T06:24:24.126Z,1.08
2023-02-18T06:25:55.467Z,2.02
2023-02-18T06:27:26.801Z,0.97
2023-02-18T06:28:58.158Z,1.42
2023-02-18T06:30:29.905Z,1.63
2023-02-18T06:32:01.530Z,2.07
2023-02-18T06:33:32.891Z,1.48
2023-02-18T06:35:04.159Z,2.02
2023-02-18T06:36:35.540Z,2.33
2023-02-18T06:38:06.806Z,1.34
2023-02-18T06:39:38.153Z,1.57
2023-02-18T06:41:09.347Z,2.22
2023-02-18T06:42:40.645Z,2.11
2023-02-18T06:44:11.898Z,1.25
2023-02-18T06:45:43.268Z,1.64
2023-02-18T06:47:14.650Z,2.06
2023-02-18T06:48:45.976Z,1.65
2023-02-18T06:50:17.404Z,2.17
2023-02-18T06:51:48.820Z,2.45
2023-02-18T06:53:20.221Z,2.45
2023-02-18T06:55:02.629Z,1.35
2023-02-18T06:56:34.029Z,1.19
2023-02-18T06:58:05.633Z,1.85
2023-02-18T06:59:36.895Z,2.05
2023-02-18T07:01:08.617Z,2.44
2023-02-18T07:02:49.913Z,2.77
2023-02-18T07:04:21.206Z,1.79
2023-02-18T07:05:52.528Z,1.51
2023-02-18T07:07:23.882Z,1.92
2023-02-18T07:08:55.207Z,1.61
2023-02-18T07:10:26.559Z,2.95
2023-02-18T07:11:58.127Z,2.41
2023-02-18T07:13:29.493Z,2.21
2023-02-18T07:15:00.750Z,1.29
2023-02-18T07:16:42.287Z,2.61
2023-02-18T07:18:13.550Z,2.51
2023-02-18T07:19:44.866Z,2.03
2023-02-18T07:21:16.305Z,1.45
2023-02-18T07:22:57.638Z,2.14
2023-02-18T07:24:29.013Z,2.40
2023-02-18T07:26:00.518Z,2.74
2023-02-18T07:27:31.918Z,1.34
2023-02-18T07:29:03.244Z,1.79
2023-02-18T07:30:34.901Z,1.88
2023-02-18T07:32:06.181Z,1.92
2023-02-18T07:33:55.047Z,1.55
2023-02-18T07:35:41.451Z,1.92
2023-02-18T07:37:12.861Z,3.78
2023-02-18T07:38:44.126Z,2.02
2023-02-18T07:40:15.428Z,2.60
2023-02-18T07:41:52.253Z,1.86
2023-02-18T07:43:33.798Z,2.10
2023-02-18T07:45:05.190Z,2.81
2023-02-18T07:46:36.541Z,2.10
2023-02-18T07:48:07.928Z,2.45
2023-02-18T07:49:39.290Z,1.97
2023-02-18T07:51:10.667Z,1.42
2023-02-18T07:52:42.240Z,1.44
2023-02-18T07:54:13.828Z,1.99
2023-02-18T07:55:45.291Z,2.90
2023-02-18T07:57:16.626Z,2.57
2023-02-18T07:58:47.943Z,2.18
2023-02-18T08:00:19.263Z,1.81
2023-02-18T08:01:50.762Z,1.96
2023-02-18T08:03:23.700Z,2.12
2023-02-18T08:04:54.927Z,1.58
2023-02-18T08:06:26.301Z,1.04
2023-02-18T08:07:57.728Z,1.45
2023-02-18T08:09:29.121Z,1.53
2023-02-18T08:11:02.768Z,1.67
2023-02-18T08:12:41.489Z,2.92
2023-02-18T08:14:12.891Z,2.10
2023-02-18T08:15:45.324Z,1.38
2023-02-18T08:17:16.643Z,1.32
2023-02-18T08:18:48.166Z,1.00
2023-02-18T08:20:19.492Z,1.62
2023-02-18T08:21:50.894Z,1.68
2023-02-18T08:23:22.222Z,1.09
2023-02-18T08:24:53.534Z,1.99
2023-02-18T08:26:24.972Z,1.13
2023-02-18T08:27:56.628Z,1.77
2023-02-18T08:29:38.548Z,1.54
2023-02-18T08:31:58.650Z,1.48
2023-02-18T08:33:31.602Z,0.66
2023-02-18T08:35:03.039Z,0.79
2023-02-18T08:36:44.707Z,1.33
2023-02-18T08:38:38.225Z,0.85
2023-02-18T08:40:15.070Z,1.73
2023-02-18T08:41:46.478Z,0.84
2023-02-18T08:43:18.013Z,1.36
2023-02-18T08:44:49.542Z,0.84
2023-02-18T08:46:27.265Z,1.14
2023-02-18T08:48:17.812Z,0.99
2023-02-18T08:49:52.428Z,0.93
2023-02-18T08:51:24.365Z,0.99
2023-02-18T08:52:55.972Z,1.13
2023-02-18T08:54:27.475Z,1.37
2023-02-18T08:55:59.273Z,1.45
2023-02-18T08:57:31.373Z,1.11
2023-02-18T08:59:02.815Z,1.33
2023-02-18T09:00:34.266Z,0.64
2023-02-18T09:02:05.579Z,0.92
2023-02-18T09:03:37.113Z,1.64
2023-02-18T09:05:08.439Z,1.33
2023-02-18T09:06:40.305Z,1.91
2023-02-18T09:08:50.815Z,1.80
2023-02-18T09:10:25.935Z,2.12
2023-02-18T09:11:57.216Z,3.29
2023-02-18T09:13:28.817Z,2.92
2023-02-18T09:15:23.747Z,3.41
2023-02-18T09:17:11.313Z,3.53
2023-02-18T09:18:43.549Z,3.77
2023-02-18T09:20:14.887Z,5.35
2023-02-18T09:21:46.259Z,5.61
2023-02-18T09:23:17.574Z,5.98
2023-02-18T09:24:48.903Z,4.69
2023-02-18T09:26:20.185Z,3.87
2023-02-18T09:27:51.858Z,3.44
2023-02-18T09:29:28.789Z,7.09
2023-02-18T09:31:15.256Z,4.85
2023-02-18T09:32:46.812Z,5.11
2023-02-18T09:34:19.081Z,5.24
2023-02-18T09:35:50.569Z,4.02
2023-02-18T09:37:21.982Z,5.04
2023-02-18T09:39:21.423Z,4.36
2023-02-18T09:41:13.424Z,3.39
2023-02-18T09:43:20.328Z,5.15
2023-02-18T09:45:21.821Z,4.79
2023-02-18T09:46:53.725Z,5.68
2023-02-18T09:48:35.416Z,3.09
2023-02-18T09:50:13.498Z,5.17
2023-02-18T09:51:46.377Z,5.08
2023-02-18T09:53:19.108Z,5.43
2023-02-18T09:54:50.902Z,3.76
2023-02-18T09:56:22.180Z,4.38
2023-02-18T09:57:53.526Z,7.09
2023-02-18T09:59:24.919Z,7.52
2023-02-18T10:00:58.508Z,8.03
2023-02-18T10:02:29.840Z,8.10
2023-02-18T10:04:01.165Z,7.64
2023-02-18T10:05:56.497Z,5.64
2023-02-18T10:07:56.969Z,6.03
2023-02-18T10:09:51.474Z,7.34
2023-02-18T10:11:22.818Z,8.54
2023-02-18T10:12:54.882Z,8.06
2023-02-18T10:14:26.294Z,8.13
2023-02-18T10:15:57.637Z,5.35
2023-02-18T10:18:04.257Z,5.27
2023-02-18T10:19:58.062Z,4.91
2023-02-18T10:21:29.531Z,6.94
2023-02-18T10:23:13.916Z,9.94
2023-02-18T10:25:13.981Z,7.52
2023-02-18T10:26:45.430Z,8.37
2023-02-18T10:28:17.850Z,8.31
2023-02-18T10:32:37.790Z,7.93
2023-02-18T10:34:15.619Z,6.46
2023-02-18T10:35:47.065Z,8.30
2023-02-18T10:37:18.324Z,7.05
2023-02-18T10:38:49.692Z,10.30
2023-02-18T10:40:21.026Z,9.84
2023-02-18T10:41:52.317Z,7.55
2023-02-18T10:43:24.036Z,6.72
2023-02-18T10:44:55.471Z,9.58
2023-02-18T10:46:27.289Z,6.70
2023-02-18T10:47:58.651Z,8.64
2023-02-18T10:49:30.146Z,8.88
2023-02-18T10:51:11.497Z,9.84
2023-02-18T10:53:08.142Z,8.89
2023-02-18T10:54:39.382Z,5.37
2023-02-18T10:56:10.688Z,6.08
2023-02-18T10:57:42.202Z,6.36
2023-02-18T10:59:13.828Z,9.91
2023-02-18T11:00:45.306Z,10.72
2023-02-18T11:02:16.798Z,8.27
2023-02-18T11:03:48.062Z,9.34
2023-02-18T11:05:19.601Z,9.19
2023-02-18T11:06:51.115Z,7.93
2023-02-18T11:08:22.373Z,7.58
2023-02-18T11:09:53.669Z,8.06
2023-02-18T11:11:24.989Z,6.24
2023-02-18T11:12:56.298Z,9.08
2023-02-18T11:14:28.006Z,8.95
2023-02-18T11:15:59.549Z,6.21
2023-02-18T11:17:31.014Z,12.28
2023-02-18T11:19:02.275Z,7.75
2023-02-18T11:20:33.549Z,6.90
2023-02-18T11:22:05.138Z,8.17
2023-02-18T11:23:36.580Z,6.69
2023-02-18T11:25:07.817Z,7.59
2023-02-18T11:26:39.063Z,7.24
2023-02-18T11:28:10.405Z,9.33
2023-02-18T11:29:42.237Z,4.90
2023-02-18T11:31:13.993Z,4.52
2023-02-18T11:32:45.678Z,5.12
2023-02-18T11:34:17.007Z,5.11
2023-02-18T11:35:48.521Z,5.79
2023-02-18T11:38:06.717Z,8.01
2023-02-18T11:39:38.862Z,10.15
2023-02-18T11:41:40.180Z,5.12
2023-02-18T11:43:29.805Z,6.68
2023-02-18T11:45:11.525Z,6.37
2023-02-18T11:46:58.734Z,4.72
2023-02-18T11:48:45.261Z,3.54
2023-02-18T11:50:18.050Z,3.33
2023-02-18T11:54:03.235Z,5.64
2023-02-18T11:55:35.545Z,4.60
2023-02-18T11:57:06.997Z,3.65
2023-02-18T11:58:38.414Z,4.51
2023-02-18T12:00:09.702Z,2.33
2023-02-18T12:01:41.290Z,4.58
2023-02-18T12:03:12.601Z,3.05
2023-02-18T12:04:43.938Z,3.52
2023-02-18T12:06:20.237Z,3.96
2023-02-18T12:07:51.542Z,3.36
2023-02-18T12:09:23.162Z,4.26
2023-02-18T12:10:54.560Z,4.71
2023-02-18T12:12:26.014Z,4.28
2023-02-18T12:13:57.585Z,3.15
2023-02-18T12:15:29.210Z,2.49
2023-02-18T12:17:00.861Z,2.00
2023-02-18T12:18:32.482Z,3.01
2023-02-18T12:20:03.787Z,4.44
2023-02-18T12:21:35.040Z,2.44
2023-02-18T12:23:06.766Z,2.84
2023-02-18T12:24:38.156Z,2.91
2023-02-18T12:26:09.623Z,4.86
2023-02-18T12:27:41.117Z,3.64
2023-02-18T12:29:12.373Z,3.57
2023-02-18T12:30:43.696Z,3.84
2023-02-18T12:32:15.120Z,3.86
2023-02-18T12:33:46.563Z,3.51
2023-02-18T12:35:17.811Z,3.24
2023-02-18T12:36:49.152Z,3.39
2023-02-18T12:38:20.464Z,2.83
2023-02-18T12:39:51.857Z,3.23
2023-02-18T12:41:23.307Z,4.20
2023-02-18T12:42:54.719Z,4.41
2023-02-18T12:44:26.248Z,3.35
2023-02-18T12:45:58.593Z,1.82
2023-02-18T12:47:30.143Z,3.09
2023-02-18T12:49:01.610Z,4.76
2023-02-18T12:50:33.214Z,2.56
2023-02-18T12:52:04.525Z,2.34
2023-02-18T12:53:35.852Z,2.53
2023-02-18T12:55:07.165Z,2.92
2023-02-18T12:56:38.593Z,4.56
2023-02-18T12:58:09.899Z,5.62
2023-02-18T12:59:41.262Z,4.51
2023-02-18T13:01:12.679Z,3.37
2023-02-18T13:02:43.960Z,3.87
2023-02-18T13:04:15.304Z,5.58
2023-02-18T13:05:46.611Z,4.39
2023-02-18T13:07:17.980Z,5.51
2023-02-18T13:08:49.308Z,5.89
2023-02-18T13:10:21.265Z,4.18
2023-02-18T13:11:52.811Z,5.31
2023-02-18T13:13:24.242Z,5.83
2023-02-18T13:14:55.581Z,5.68
2023-02-18T13:16:27.018Z,6.02
2023-02-18T13:17:58.369Z,7.94
2023-02-18T13:19:30.292Z,5.78
2023-02-18T13:21:02.958Z,4.60
2023-02-18T13:22:36.305Z,3.87
2023-02-18T13:24:07.957Z,6.57
2023-02-18T13:25:39.265Z,6.28
2023-02-18T13:27:10.771Z,8.74
2023-02-18T13:28:42.461Z,6.51
2023-02-18T13:30:13.932Z,5.50
2023-02-18T13:31:45.419Z,4.98
2023-02-18T13:33:16.848Z,5.55
2023-02-18T13:34:48.191Z,8.21
2023-02-18T13:36:19.572Z,7.64
2023-02-18T13:37:51.034Z,6.15
2023-02-18T13:39:22.580Z,5.51
2023-02-18T13:40:53.879Z,6.94
2023-02-18T13:42:25.277Z,5.45
2023-02-18T13:43:56.808Z,4.37
2023-02-18T13:45:28.432Z,6.58
2023-02-18T13:47:00.020Z,8.74
2023-02-18T13:48:36.389Z,7.00
2023-02-18T13:50:07.771Z,5.62
2023-02-18T13:51:39.050Z,5.95
2023-02-18T13:53:10.611Z,5.73
2023-02-18T13:54:42.148Z,5.59
2023-02-18T13:56:13.653Z,5.79
2023-02-18T13:57:44.888Z,6.54
2023-02-18T13:59:16.265Z,4.70
2023-02-18T14:00:47.841Z,5.02
2023-02-18T14:02:19.642Z,6.47
2023-02-18T14:03:51.050Z,7.28
2023-02-18T14:05:22.450Z,7.23
2023-02-18T14:06:53.785Z,5.68
2023-02-18T14:08:25.098Z,6.11
2023-02-18T14:09:56.506Z,5.09
2023-02-18T14:11:27.836Z,5.23
2023-02-18T14:12:59.250Z,6.04
2023-02-18T14:14:40.706Z,7.12
2023-02-18T14:16:16.980Z,8.00
2023-02-18T14:18:03.983Z,12.78
2023-02-18T14:19:35.241Z,10.80
2023-02-18T14:21:32.931Z,8.92
2023-02-18T14:23:04.395Z,8.98
2023-02-18T14:25:04.531Z,10.15
2023-02-18T14:26:51.087Z,12.63
2023-02-18T14:28:22.868Z,11.91
2023-02-18T14:29:54.346Z,12.25
2023-02-18T14:31:30.293Z,14.11
2023-02-18T14:33:02.238Z,12.53
2023-02-18T14:34:34.061Z,15.86
2023-02-18T14:36:06.326Z,12.94
2023-02-18T14:37:58.153Z,14.31
2023-02-18T14:39:39.691Z,10.16
2023-02-18T14:41:11.320Z,13.41
2023-02-18T14:42:43.993Z,12.90
2023-02-18T14:44:35.342Z,14.59
2023-02-18T14:46:06.847Z,16.40
2023-02-18T14:47:38.180Z,15.19
2023-02-18T14:49:09.474Z,20.37
2023-02-18T14:50:40.893Z,17.88
2023-02-18T14:52:12.124Z,20.35
2023-02-18T14:53:43.863Z,20.57
2023-02-18T14:55:15.372Z,19.09
2023-02-18T14:56:46.879Z,14.64
2023-02-18T14:58:18.129Z,12.67
2023-02-18T14:59:49.754Z,18.09
2023-02-18T15:01:21.121Z,18.85
2023-02-18T15:02:52.544Z,20.41
2023-02-18T15:04:23.791Z,20.16
2023-02-18T15:05:55.121Z,20.79
2023-02-18T15:07:26.472Z,17.46
2023-02-18T15:08:58.203Z,17.94
2023-02-18T15:10:29.497Z,17.30
2023-02-18T15:12:00.840Z,15.89
2023-02-18T15:13:32.169Z,17.48
2023-02-18T15:15:03.462Z,16.22
2023-02-18T15:16:39.941Z,21.63
2023-02-18T15:18:21.860Z,21.08
2023-02-18T15:19:58.329Z,20.27
2023-02-18T15:21:39.627Z,20.82
2023-02-18T15:23:21.778Z,19.60
2023-02-18T15:25:17.466Z,20.02
2023-02-18T15:27:16.383Z,22.80
2023-02-18T15:28:57.581Z,26.84
2023-02-18T15:30:51.816Z,19.42
2023-02-18T15:32:42.797Z,25.08
2023-02-18T15:34:14.401Z,21.55
2023-02-18T15:38:14.065Z,16.89
2023-02-18T15:39:45.527Z,23.20
2023-02-18T15:41:16.885Z,16.50
2023-02-18T15:43:39.296Z,17.95
2023-02-18T15:45:20.763Z,20.05
2023-02-18T15:46:52.167Z,16.77
2023-02-18T15:48:24.076Z,25.05
2023-02-18T15:50:00.618Z,23.43
2023-02-18T15:51:31.950Z,21.00
2023-02-18T15:53:03.248Z,14.40
2023-02-18T15:54:38.002Z,23.78
2023-02-18T15:56:09.400Z,22.95
2023-02-18T15:57:40.678Z,21.40
2023-02-18T15:59:12.381Z,26.28
2023-02-18T16:00:46.782Z,16.56
2023-02-18T16:02:23.073Z,19.83
2023-02-18T16:04:13.409Z,17.37
2023-02-18T16:05:46.689Z,14.52
2023-02-18T16:07:17.979Z,14.07
2023-02-18T16:09:12.397Z,20.48
2023-02-18T16:10:43.734Z,16.50
2023-02-18T16:12:45.160Z,13.34
2023-02-18T16:14:16.876Z,18.12
2023-02-18T16:15:48.641Z,13.88
2023-02-18T16:17:20.689Z,20.51
2023-02-18T16:19:03.178Z,17.15
2023-02-18T16:20:36.503Z,23.83
2023-02-18T16:22:08.162Z,20.87
2023-02-18T16:23:51.913Z,21.86
2023-02-18T16:25:23.553Z,16.38
2023-02-18T16:26:58.700Z,24.39
2023-02-18T16:28:47.420Z,23.33
2023-02-18T16:30:18.869Z,30.05
2023-02-18T16:31:55.820Z,34.95
2023-02-18T16:33:27.594Z,29.51
2023-02-18T16:35:09.632Z,34.76
2023-02-18T16:37:03.190Z,29.05
2023-02-18T16:38:34.854Z,27.74
2023-02-18T16:40:24.762Z,26.49
2023-02-18T16:41:56.236Z,32.13
2023-02-18T16:43:57.858Z,22.44
2023-02-18T16:47:41.221Z,31.87
2023-02-18T16:49:12.989Z,29.68
2023-02-18T16:50:44.733Z,38.82
2023-02-18T16:52:16.334Z,33.76
2023-02-18T16:53:49.420Z,36.45
2023-02-18T16:55:40.891Z,29.51
2023-02-18T16:57:12.871Z,34.44
2023-02-18T16:58:44.144Z,39.65
2023-02-18T17:00:15.587Z,28.91
2023-02-18T17:01:47.033Z,30.62
2023-02-18T17:03:18.343Z,35.60
2023-02-18T17:04:49.781Z,37.46
2023-02-18T17:06:21.338Z,34.00
2023-02-18T17:07:52.626Z,31.64
2023-02-18T17:09:24.035Z,32.30
2023-02-18T17:10:58.898Z,28.12
2023-02-18T17:12:30.521Z,30.98
2023-02-18T17:14:01.862Z,23.17
2023-02-18T17:15:33.319Z,29.99
2023-02-18T17:17:04.738Z,31.91
2023-02-18T17:18:36.082Z,26.23
2023-02-18T17:20:07.380Z,26.67
2023-02-18T17:21:38.819Z,30.63
2023-02-18T17:23:15.262Z,27.69
2023-02-18T17:24:51.751Z,21.70
2023-02-18T17:26:23.673Z,29.82
2023-02-18T17:27:55.158Z,25.75
2023-02-18T17:29:26.606Z,24.78
2023-02-18T17:30:57.981Z,28.56
2023-02-18T17:32:29.388Z,27.46
2023-02-18T17:34:06.059Z,26.15
2023-02-18T17:35:37.621Z,26.59
2023-02-18T17:37:08.960Z,24.70
2023-02-18T17:38:40.763Z,23.92
2023-02-18T17:40:12.071Z,26.13
2023-02-18T17:41:43.494Z,25.80
2023-02-18T17:43:14.809Z,27.15
2023-02-18T17:44:46.106Z,25.24
2023-02-18T17:46:22.593Z,28.11
2023-02-18T17:47:54.214Z,24.93
2023-02-18T17:49:25.525Z,25.78
2023-02-18T17:50:57.078Z,23.37
2023-02-18T17:52:29.369Z,22.98
2023-02-18T17:54:05.968Z,28.23
2023-02-18T17:55:37.510Z,27.73
2023-02-18T17:57:09.196Z,26.57
2023-02-18T17:58:40.537Z,28.51
2023-02-18T18:00:11.907Z,22.05
2023-02-18T18:01:43.247Z,23.13
2023-02-18T18:03:14.675Z,25.61
2023-02-18T18:04:45.975Z,21.27
2023-02-18T18:06:17.281Z,23.16
2023-02-18T18:07:48.570Z,29.27
2023-02-18T18:09:19.887Z,25.40
2023-02-18T18:10:51.320Z,25.18
2023-02-18T18:12:22.695Z,24.63
2023-02-18T18:13:54.190Z,23.75
2023-02-18T18:15:25.831Z,23.02
2023-02-18T18:16:57.476Z,22.14
2023-02-18T18:18:28.865Z,24.65
2023-02-18T18:20:00.407Z,26.63
2023-02-18T18:21:31.931Z,27.22
2023-02-18T18:23:08.326Z,26.16
2023-02-18T18:24:44.782Z,26.49
2023-02-18T18:26:16.286Z,25.23
2023-02-18T18:27:47.765Z,27.16
2023-02-18T18:29:29.234Z,27.07
2023-02-18T18:31:05.639Z,28.02
2023-02-18T18:32:36.936Z,23.05
2023-02-18T18:34:28.278Z,23.67
2023-02-18T18:35:59.897Z,28.33
2023-02-18T18:37:31.438Z,28.86
2023-02-18T18:39:12.824Z,25.96
2023-02-18T18:40:44.546Z,23.88
2023-02-18T18:42:16.057Z,22.00
2023-02-18T18:44:07.450Z,25.98
2023-02-18T18:45:42.677Z,24.42
2023-02-18T18:47:37.324Z,23.86
2023-02-18T18:49:08.825Z,26.84
2023-02-18T18:50:42.434Z,28.98
2023-02-18T18:52:13.694Z,28.06
2023-02-18T18:53:45.080Z,18.65
2023-02-18T18:55:16.467Z,32.15
2023-02-18T18:56:47.793Z,31.45
2023-02-18T18:58:19.085Z,25.84
2023-02-18T18:59:50.915Z,23.19
2023-02-18T19:01:22.230Z,24.80
2023-02-18T19:02:53.531Z,26.10
2023-02-18T19:04:44.926Z,20.37
2023-02-18T19:06:38.337Z,25.26
2023-02-18T19:08:09.858Z,22.28
2023-02-18T19:09:41.770Z,20.48
2023-02-18T19:11:13.320Z,20.48
2023-02-18T19:12:44.800Z,20.24
2023-02-18T19:14:46.167Z,22.28
2023-02-18T19:16:17.470Z,19.55
2023-02-18T19:18:17.604Z,23.39
2023-02-18T19:19:50.106Z,15.04
2023-02-18T19:21:21.578Z,15.77
2023-02-18T19:22:53.292Z,20.91
2023-02-18T19:24:24.622Z,27.52
2023-02-18T19:26:10.942Z,17.57
2023-02-18T19:27:42.204Z,19.41
2023-02-18T19:29:13.998Z,25.35
2023-02-18T19:31:00.994Z,24.69
2023-02-18T19:32:32.367Z,21.52
2023-02-18T19:34:03.787Z,20.94
2023-02-18T19:36:10.929Z,21.22
2023-02-18T19:37:47.864Z,22.63
2023-02-18T19:39:20.221Z,16.46
2023-02-18T19:40:51.600Z,22.66
2023-02-18T19:44:24.455Z,20.80
2023-02-18T19:46:10.909Z,20.93
2023-02-18T19:47:42.405Z,15.01
2023-02-18T19:49:29.140Z,15.68
2023-02-18T19:51:05.787Z,19.67
2023-02-18T19:52:37.325Z,20.07
2023-02-18T19:54:08.791Z,21.90
2023-02-18T19:55:40.304Z,14.75
2023-02-18T19:57:11.643Z,13.09
2023-02-18T19:58:42.905Z,14.96
2023-02-18T20:00:16.273Z,20.91
2023-02-18T20:01:48.132Z,17.29
2023-02-18T20:03:19.504Z,22.02
2023-02-18T20:04:51.129Z,18.55
2023-02-18T20:06:22.582Z,24.35
2023-02-18T20:07:59.006Z,17.69
2023-02-18T20:09:30.407Z,27.61
2023-02-18T20:11:01.721Z,24.53
2023-02-18T20:12:33.140Z,28.09
2023-02-18T20:14:19.624Z,26.66
2023-02-18T20:15:51.154Z,26.32
2023-02-18T20:17:22.581Z,21.47
2023-02-18T20:18:53.840Z,27.06
2023-02-18T20:20:25.378Z,24.71
2023-02-18T20:21:56.657Z,24.95
2023-02-18T20:23:28.100Z,31.44
2023-02-18T20:24:59.539Z,23.01
2023-02-18T20:26:31.017Z,22.87
2023-02-18T20:28:02.309Z,20.89
2023-02-18T20:29:35.170Z,23.93
2023-02-18T20:31:06.504Z,20.92
2023-02-18T20:32:37.853Z,29.36
2023-02-18T20:34:09.138Z,20.38
2023-02-18T20:35:45.385Z,15.27
2023-02-18T20:37:16.845Z,27.07
2023-02-18T20:38:48.489Z,30.99